This is the latest recevied weather packets stored in our database for station/object CA4LJZ-10. If no packets are shown the sender has not sent any weather packets the latest 10 day(s).
| Time | Temp. | Humidity | Pressure | Rain* | Wind** | Luminosity | Snow |
|---|---|---|---|---|---|---|---|
| 1777767557 | 17.22° C | 45% | 954.8 hPa | - | - | - | - |
| 1777766656 | 17.78° C | 45% | 954.6 hPa | - | - | - | - |
| 1777760349 | 22.22° C | 36% | 952.8 hPa | - | - | - | - |
| 1777759472 | 22.22° C | 33% | 952.9 hPa | - | - | - | - |
| 1777758571 | 23.33° C | 30% | 952.7 hPa | - | - | - | - |
| 1777757670 | 23.89° C | 29% | 952.7 hPa | - | - | - | - |
| 1777756769 | 25° C | 27% | 952.7 hPa | - | - | - | - |
| 1777755868 | 26.11° C | 26% | 952.6 hPa | - | - | - | - |
| 1777754968 | 27.22° C | 25% | 952.6 hPa | - | - | - | - |
| 1777753165 | 27.78° C | 21% | 952.5 hPa | - | - | - | - |
| 1777752264 | 28.89° C | 20% | 952.6 hPa | - | - | - | - |
| 1777751363 | 28.33° C | 22% | 952.5 hPa | - | - | - | - |
| 1777750462 | 29.44° C | 24% | 952.6 hPa | - | - | - | - |
| 1777749601 | 28.33° C | 23% | 952.4 hPa | - | - | - | - |
| 1777749561 | 28.33° C | 23% | 952.4 hPa | - | - | - | - |
| 1777748660 | 28.89° C | 24% | 952.3 hPa | - | - | - | - |
| 1777747760 | 28.89° C | 24% | 952.3 hPa | - | - | - | - |
| 1777746856 | 28.89° C | 26% | 952.4 hPa | - | - | - | - |
| 1777745055 | 37.22° C | 16% | 952.6 hPa | - | - | - | - |
| 1777744154 | 39.44° C | 16% | 952.7 hPa | - | - | - | - |
| 1777743253 | 42.78° C | 16% | 952.9 hPa | - | - | - | - |
| 1777738748 | 50° C | 14% | 953.9 hPa | - | - | - | - |
| 1777737871 | 42.22° C | 15% | 954 hPa | - | - | - | - |
| 1777736970 | 45.56° C | 15% | 954.4 hPa | - | - | - | - |
| 1777736069 | 44.44° C | 16% | 954.6 hPa | - | - | - | - |
* Rain since midnight (hover to see other rain measurements)
** Current wind speed in m/s (hover to see current wind gust speed)